createdAt,value
2023-01-28T00:01:10.270Z,6.50
2023-01-28T00:03:37.110Z,5.93
2023-01-28T00:06:03.879Z,6.18
2023-01-28T00:08:30.705Z,6.60
2023-01-28T00:10:57.441Z,6.18
2023-01-28T00:13:24.110Z,6.25
2023-01-28T00:15:50.657Z,6.03
2023-01-28T00:18:17.576Z,6.32
2023-01-28T00:20:44.136Z,5.75
2023-01-28T00:23:11.208Z,6.15
2023-01-28T00:25:37.587Z,6.72
2023-01-28T00:28:04.119Z,5.78
2023-01-28T00:30:30.712Z,6.40
2023-01-28T00:32:57.178Z,6.13
2023-01-28T00:35:23.459Z,6.10
2023-01-28T00:37:49.823Z,5.70
2023-01-28T00:40:16.269Z,5.75
2023-01-28T00:42:43.050Z,6.15
2023-01-28T00:45:09.622Z,6.05
2023-01-28T00:47:36.037Z,5.95
2023-01-28T00:50:02.945Z,5.15
2023-01-28T00:52:29.520Z,5.68
2023-01-28T00:54:55.858Z,5.90
2023-01-28T00:57:22.792Z,5.72
2023-01-28T00:59:49.130Z,5.78
2023-01-28T01:02:15.617Z,5.30
2023-01-28T01:04:42.069Z,5.72
2023-01-28T01:07:08.793Z,5.05
2023-01-28T01:09:35.230Z,5.28
2023-01-28T01:12:01.741Z,6.47
2023-01-28T01:14:28.216Z,5.40
2023-01-28T01:16:54.645Z,5.53
2023-01-28T01:19:21.077Z,5.30
2023-01-28T01:21:47.632Z,5.40
2023-01-28T01:24:14.002Z,5.15
2023-01-28T01:26:40.560Z,4.95
2023-01-28T01:29:07.104Z,5.32
2023-01-28T01:31:33.533Z,4.82
2023-01-28T01:33:59.995Z,5.20
2023-01-28T01:36:26.431Z,5.07
2023-01-28T01:38:52.985Z,5.30
2023-01-28T01:41:19.468Z,4.65
2023-01-28T01:43:45.947Z,5.55
2023-01-28T01:46:12.437Z,5.45
2023-01-28T01:48:39.023Z,4.95
2023-01-28T01:51:05.439Z,5.38
2023-01-28T01:53:31.891Z,4.57
2023-01-28T01:55:58.386Z,4.55
2023-01-28T01:58:25.253Z,4.68
2023-01-28T02:00:51.586Z,4.72
2023-01-28T02:03:19.341Z,4.60
2023-01-28T02:05:46.418Z,4.72
2023-01-28T02:08:13.350Z,5.38
2023-01-28T02:10:39.967Z,4.95
2023-01-28T02:13:06.534Z,4.35
2023-01-28T02:15:33.224Z,4.25
2023-01-28T02:17:59.888Z,4.38
2023-01-28T02:20:26.422Z,4.75
2023-01-28T02:22:53.355Z,5.05
2023-01-28T02:25:19.807Z,4.57
2023-01-28T02:27:46.357Z,4.28
2023-01-28T02:30:12.762Z,4.38
2023-01-28T02:32:39.293Z,4.40
2023-01-28T02:35:05.762Z,4.30
2023-01-28T02:37:32.207Z,4.97
2023-01-28T02:39:58.561Z,4.38
2023-01-28T02:42:25.332Z,4.07
2023-01-28T02:44:51.784Z,3.80
2023-01-28T02:47:18.352Z,4.40
2023-01-28T02:49:45.019Z,4.18
2023-01-28T02:52:11.628Z,4.93
2023-01-28T02:54:38.256Z,4.40
2023-01-28T02:57:04.944Z,4.43
2023-01-28T02:59:31.543Z,4.30
2023-01-28T03:01:57.889Z,4.18
2023-01-28T03:04:24.418Z,4.40
2023-01-28T03:06:51.084Z,4.10
2023-01-28T03:09:17.669Z,4.38
2023-01-28T03:11:44.206Z,4.03
2023-01-28T03:14:10.810Z,4.40
2023-01-28T03:16:37.359Z,4.10
2023-01-28T03:19:03.862Z,4.28
2023-01-28T03:21:30.947Z,4.30
2023-01-28T03:23:57.380Z,4.22
2023-01-28T03:26:24.480Z,3.95
2023-01-28T03:28:51.028Z,4.32
2023-01-28T03:31:17.415Z,4.15
2023-01-28T03:33:44.372Z,4.15
2023-01-28T03:36:10.760Z,3.80
2023-01-28T03:38:37.158Z,4.22
2023-01-28T03:41:03.701Z,4.25
2023-01-28T03:43:30.222Z,4.50
2023-01-28T03:45:57.114Z,4.20
2023-01-28T03:48:23.915Z,4.43
2023-01-28T03:50:50.626Z,4.10
2023-01-28T03:53:17.233Z,4.30
2023-01-28T03:55:43.860Z,4.72
2023-01-28T03:58:10.769Z,3.60
2023-01-28T04:00:37.475Z,3.72
2023-01-28T04:03:04.470Z,4.05
2023-01-28T04:05:30.934Z,4.32
2023-01-28T04:07:57.682Z,3.63
2023-01-28T04:10:24.449Z,4.03
2023-01-28T04:12:52.029Z,3.80
2023-01-28T04:15:18.533Z,4.07
2023-01-28T04:17:45.399Z,4.25
2023-01-28T04:20:11.888Z,3.83
2023-01-28T04:22:39.098Z,3.80
2023-01-28T04:25:05.486Z,4.13
2023-01-28T04:27:32.430Z,4.38
2023-01-28T04:29:59.099Z,3.83
2023-01-28T04:32:26.152Z,4.47
2023-01-28T04:34:52.883Z,3.85
2023-01-28T04:37:19.234Z,4.28
2023-01-28T04:39:46.304Z,3.58
2023-01-28T04:42:12.987Z,4.28
2023-01-28T04:44:39.362Z,3.90
2023-01-28T04:47:05.868Z,3.85
2023-01-28T04:49:32.310Z,3.60
2023-01-28T04:51:58.766Z,3.85
2023-01-28T04:54:25.488Z,3.97
2023-01-28T04:56:51.882Z,3.72
2023-01-28T04:59:18.321Z,3.78
2023-01-28T05:01:44.896Z,3.80
2023-01-28T05:04:11.532Z,3.70
2023-01-28T05:06:37.959Z,4.00
2023-01-28T05:09:04.534Z,3.88
2023-01-28T05:11:31.020Z,3.80
2023-01-28T05:13:57.347Z,3.65
2023-01-28T05:16:23.864Z,3.75
2023-01-28T05:18:51.055Z,3.45
2023-01-28T05:21:17.571Z,3.60
2023-01-28T05:23:44.061Z,3.67
2023-01-28T05:26:10.851Z,3.53
2023-01-28T05:28:37.870Z,3.80
2023-01-28T05:31:04.368Z,4.03
2023-01-28T05:33:31.113Z,3.85
2023-01-28T05:35:58.029Z,4.05
2023-01-28T05:38:24.621Z,4.00
2023-01-28T05:40:51.856Z,3.78
2023-01-28T05:43:18.294Z,3.97
2023-01-28T05:45:45.164Z,3.75
2023-01-28T05:48:11.837Z,3.60
2023-01-28T05:50:38.361Z,4.07
2023-01-28T05:53:05.425Z,3.72
2023-01-28T05:55:32.157Z,3.72
2023-01-28T05:57:58.471Z,4.50
2023-01-28T06:00:25.196Z,4.10
2023-01-28T06:02:51.855Z,3.83
2023-01-28T06:05:18.215Z,4.30
2023-01-28T06:07:44.801Z,3.72
2023-01-28T06:10:11.482Z,3.85
2023-01-28T06:12:38.111Z,4.18
2023-01-28T06:15:04.647Z,4.38
2023-01-28T06:17:31.301Z,3.67
2023-01-28T06:19:57.661Z,3.83
2023-01-28T06:22:23.990Z,3.95
2023-01-28T06:24:50.862Z,3.65
2023-01-28T06:27:17.395Z,3.80
2023-01-28T06:29:43.835Z,3.65
2023-01-28T06:32:10.256Z,3.50
2023-01-28T06:34:36.589Z,3.83
2023-01-28T06:37:02.896Z,3.42
2023-01-28T06:39:29.217Z,3.92
2023-01-28T06:41:55.916Z,3.70
2023-01-28T06:44:22.309Z,4.35
2023-01-28T06:46:48.760Z,4.32
2023-01-28T06:49:15.199Z,3.60
2023-01-28T06:51:41.722Z,3.63
2023-01-28T06:54:08.314Z,3.85
2023-01-28T06:56:34.968Z,3.65
2023-01-28T06:59:01.856Z,3.72
2023-01-28T07:01:28.547Z,4.05
2023-01-28T07:03:55.271Z,3.78
2023-01-28T07:06:21.841Z,3.78
2023-01-28T07:08:48.615Z,3.60
2023-01-28T07:11:15.278Z,4.00
2023-01-28T07:13:41.676Z,3.90
2023-01-28T07:16:08.466Z,3.83
2023-01-28T07:18:35.151Z,3.80
2023-01-28T07:21:02.169Z,4.07
2023-01-28T07:23:29.882Z,3.78
2023-01-28T07:25:56.821Z,3.90
2023-01-28T07:28:23.355Z,3.75
2023-01-28T07:30:51.845Z,3.70
2023-01-28T07:33:19.659Z,3.83
2023-01-28T07:35:46.542Z,4.03
2023-01-28T07:38:12.983Z,3.88
2023-01-28T07:40:39.456Z,3.63
2023-01-28T07:43:05.822Z,4.05
2023-01-28T07:45:32.727Z,3.63
2023-01-28T07:47:59.203Z,4.43
2023-01-28T07:50:25.744Z,3.75
2023-01-28T07:52:52.303Z,3.70
2023-01-28T07:55:19.173Z,4.00
2023-01-28T07:57:45.512Z,4.15
2023-01-28T08:00:12.505Z,3.80
2023-01-28T08:02:39.323Z,4.07
2023-01-28T08:05:05.770Z,3.50
2023-01-28T08:07:32.167Z,3.90
2023-01-28T08:09:58.563Z,3.60
2023-01-28T08:12:25.089Z,3.65
2023-01-28T08:14:51.529Z,3.45
2023-01-28T08:17:18.097Z,4.35
2023-01-28T08:19:45.122Z,3.80
2023-01-28T08:22:11.663Z,4.20
2023-01-28T08:24:38.755Z,3.80
2023-01-28T08:27:05.759Z,3.97
2023-01-28T08:29:32.188Z,4.03
2023-01-28T08:31:58.539Z,3.42
2023-01-28T08:34:25.143Z,3.22
2023-01-28T08:36:52.088Z,3.92
2023-01-28T08:39:18.627Z,3.63
2023-01-28T08:41:45.156Z,4.10
2023-01-28T08:44:11.855Z,3.83
2023-01-28T08:46:38.393Z,3.92
2023-01-28T08:49:04.861Z,3.40
2023-01-28T08:51:31.410Z,3.35
2023-01-28T08:53:58.164Z,3.55
2023-01-28T08:56:24.800Z,3.97
2023-01-28T08:58:51.249Z,3.65
2023-01-28T09:01:17.941Z,3.88
2023-01-28T09:03:44.321Z,3.95
2023-01-28T09:06:11.170Z,3.47
2023-01-28T09:08:37.689Z,4.28
2023-01-28T09:11:04.185Z,4.03
2023-01-28T09:13:31.501Z,4.65
2023-01-28T09:15:58.040Z,4.15
2023-01-28T09:18:24.480Z,4.38
2023-01-28T09:20:51.327Z,4.47
2023-01-28T09:23:18.040Z,4.82
2023-01-28T09:25:44.520Z,4.20
2023-01-28T09:28:11.088Z,4.78
2023-01-28T09:30:38.251Z,5.20
2023-01-28T09:33:05.458Z,5.28
2023-01-28T09:35:32.132Z,4.70
2023-01-28T09:37:58.762Z,4.57
2023-01-28T09:40:26.250Z,5.13
2023-01-28T09:42:52.934Z,5.28
2023-01-28T09:45:19.335Z,5.00
2023-01-28T09:47:46.157Z,4.90
2023-01-28T09:50:13.270Z,4.75
2023-01-28T09:52:40.111Z,4.63
2023-01-28T09:55:06.558Z,4.90
2023-01-28T09:57:33.131Z,4.38
2023-01-28T10:00:00.009Z,5.10
2023-01-28T10:02:26.797Z,4.10
2023-01-28T10:04:53.255Z,4.72
2023-01-28T10:07:19.814Z,4.53
2023-01-28T10:09:46.553Z,4.53
2023-01-28T10:12:13.132Z,5.00
2023-01-28T10:14:39.804Z,4.43
2023-01-28T10:17:06.882Z,4.85
2023-01-28T10:19:33.526Z,4.15
2023-01-28T10:22:00.297Z,4.80
2023-01-28T10:24:27.418Z,4.40
2023-01-28T10:26:54.031Z,4.55
2023-01-28T10:29:20.388Z,4.38
2023-01-28T10:31:46.923Z,4.60
2023-01-28T10:34:13.469Z,4.03
2023-01-28T10:36:39.974Z,4.40
2023-01-28T10:39:07.356Z,4.30
2023-01-28T10:41:34.220Z,4.70
2023-01-28T10:44:00.938Z,4.50
2023-01-28T10:46:27.373Z,4.15
2023-01-28T10:48:54.310Z,4.70
2023-01-28T10:51:20.667Z,4.00
2023-01-28T10:53:47.242Z,4.25
2023-01-28T10:56:13.789Z,4.00
2023-01-28T10:58:40.471Z,3.90
2023-01-28T11:01:06.982Z,3.83
2023-01-28T11:03:33.541Z,4.28
2023-01-28T11:05:59.920Z,4.88
2023-01-28T11:08:26.605Z,3.97
2023-01-28T11:10:53.261Z,4.20
2023-01-28T11:13:19.859Z,3.90
2023-01-28T11:15:46.442Z,4.47
2023-01-28T11:18:12.854Z,4.13
2023-01-28T11:20:39.453Z,4.32
2023-01-28T11:23:05.975Z,4.35
2023-01-28T11:25:32.536Z,4.07
2023-01-28T11:27:59.193Z,4.15
2023-01-28T11:30:25.806Z,3.83
2023-01-28T11:32:52.813Z,3.78
2023-01-28T11:35:19.405Z,4.43
2023-01-28T11:37:46.095Z,4.43
2023-01-28T11:40:13.893Z,3.55
2023-01-28T11:42:41.182Z,3.85
2023-01-28T11:45:07.975Z,3.55
2023-01-28T11:47:35.025Z,3.90
2023-01-28T11:50:01.822Z,3.92
2023-01-28T11:52:32.035Z,3.97
2023-01-28T11:55:05.460Z,3.60
2023-01-28T11:57:32.413Z,4.15
2023-01-28T11:59:59.316Z,3.92
2023-01-28T12:02:26.890Z,3.60
2023-01-28T12:04:53.809Z,3.60
2023-01-28T12:07:20.207Z,3.70
2023-01-28T12:09:47.513Z,4.07
2023-01-28T12:12:13.986Z,5.50
2023-01-28T12:14:40.414Z,3.90
2023-01-28T12:17:06.825Z,3.40
2023-01-28T12:19:33.950Z,3.42
2023-01-28T12:22:00.639Z,3.60
2023-01-28T12:24:27.142Z,3.17
2023-01-28T12:26:53.797Z,3.10
2023-01-28T12:29:20.633Z,3.20
2023-01-28T12:31:47.424Z,3.40
2023-01-28T12:34:13.800Z,3.08
2023-01-28T12:36:40.226Z,2.88
2023-01-28T12:39:06.658Z,3.05
2023-01-28T12:41:33.233Z,2.80
2023-01-28T12:44:00.162Z,3.03
2023-01-28T12:46:27.498Z,189.48
2023-01-28T12:48:53.862Z,310.25
2023-01-28T12:51:20.518Z,234.55
2023-01-28T12:53:47.047Z,186.45
2023-01-28T12:56:13.774Z,165.52
2023-01-28T12:58:40.430Z,153.48
2023-01-28T13:01:06.909Z,143.38
2023-01-28T13:03:33.317Z,137.85
2023-01-28T13:05:59.818Z,125.55
2023-01-28T13:08:26.161Z,155.05
2023-01-28T13:10:52.473Z,169.43
2023-01-28T13:13:19.157Z,160.02
2023-01-28T13:15:45.525Z,154.07
2023-01-28T13:18:11.960Z,139.15
2023-01-28T13:20:38.706Z,137.38
2023-01-28T13:23:05.930Z,124.40
2023-01-28T13:25:32.236Z,119.25
2023-01-28T13:27:59.231Z,112.80
2023-01-28T13:30:25.585Z,103.38
2023-01-28T13:32:52.017Z,97.15
2023-01-28T13:35:18.415Z,93.82
2023-01-28T13:37:45.199Z,159.27
2023-01-28T13:40:11.753Z,232.40
2023-01-28T13:42:38.438Z,200.13
2023-01-28T13:45:05.311Z,186.27
2023-01-28T13:47:31.860Z,172.82
2023-01-28T13:49:58.732Z,163.73
2023-01-28T13:52:25.175Z,150.57
2023-01-28T13:54:52.106Z,142.38
2023-01-28T13:57:18.688Z,134.57
2023-01-28T13:59:45.528Z,258.83
2023-01-28T14:02:12.283Z,253.48
2023-01-28T14:04:38.885Z,225.73
2023-01-28T14:07:05.573Z,217.15
2023-01-28T14:09:32.451Z,199.15
2023-01-28T14:11:59.049Z,171.43
2023-01-28T14:14:25.469Z,152.75
2023-01-28T14:16:51.962Z,143.48
2023-01-28T14:19:18.386Z,134.70
2023-01-28T14:21:45.430Z,125.20
2023-01-28T14:24:12.642Z,121.28
2023-01-28T14:26:39.075Z,169.57
2023-01-28T14:29:05.529Z,234.25
2023-01-28T14:31:32.077Z,229.73
2023-01-28T14:33:58.698Z,210.73
2023-01-28T14:36:25.784Z,197.90
2023-01-28T14:38:52.078Z,171.05
2023-01-28T14:41:18.416Z,159.65
2023-01-28T14:43:45.371Z,156.07
2023-01-28T14:46:11.786Z,139.35
2023-01-28T14:48:38.534Z,139.25
2023-01-28T14:51:04.877Z,131.27
2023-01-28T14:53:31.347Z,140.30
2023-01-28T14:55:57.704Z,178.85
2023-01-28T14:58:24.472Z,194.70
2023-01-28T15:00:51.541Z,191.13
2023-01-28T15:03:24.832Z,178.15
2023-01-28T15:05:51.940Z,164.10
2023-01-28T15:08:18.395Z,151.57
2023-01-28T15:10:45.239Z,148.50
2023-01-28T15:13:11.950Z,136.55
2023-01-28T15:15:38.508Z,129.82
2023-01-28T15:18:05.475Z,124.90
2023-01-28T15:20:31.991Z,118.32
2023-01-28T15:22:58.320Z,113.57
2023-01-28T15:25:25.443Z,107.63
2023-01-28T15:27:52.388Z,100.75
2023-01-28T15:30:34.527Z,97.72
2023-01-28T15:33:01.106Z,90.63
2023-01-28T15:35:28.136Z,89.15
2023-01-28T15:37:55.638Z,81.18
2023-01-28T15:40:22.747Z,78.70
2023-01-28T15:42:49.903Z,72.05
2023-01-28T15:45:16.612Z,68.15
2023-01-28T15:47:43.288Z,64.93
2023-01-28T15:50:10.005Z,62.00
2023-01-28T15:52:37.310Z,57.47
2023-01-28T15:55:04.023Z,54.13
2023-01-28T15:57:30.932Z,50.55
2023-01-28T15:59:57.476Z,48.20
2023-01-28T16:02:23.963Z,47.22
2023-01-28T16:04:50.526Z,44.55
2023-01-28T16:07:16.966Z,42.92
2023-01-28T16:09:43.498Z,44.17
2023-01-28T16:12:09.969Z,113.13
2023-01-28T16:14:36.904Z,171.35
2023-01-28T16:17:03.428Z,152.95
2023-01-28T16:19:29.853Z,143.32
2023-01-28T16:21:56.420Z,130.02
2023-01-28T16:24:38.221Z,128.57
2023-01-28T16:27:05.069Z,116.65
2023-01-28T16:29:31.763Z,111.40
2023-01-28T16:31:58.303Z,102.35
2023-01-28T16:34:25.256Z,99.55
2023-01-28T16:36:51.961Z,95.07
2023-01-28T16:39:18.730Z,87.50
2023-01-28T16:41:45.444Z,82.63
2023-01-28T16:44:12.043Z,77.95
2023-01-28T16:46:38.557Z,74.82
2023-01-28T16:49:05.044Z,69.40
2023-01-28T16:51:32.645Z,66.95
2023-01-28T16:53:59.093Z,137.48
2023-01-28T16:59:12.650Z,124.03
2023-01-28T17:01:39.197Z,115.07
2023-01-28T17:04:05.681Z,113.93
2023-01-28T17:06:32.362Z,105.10
2023-01-28T17:08:58.767Z,98.65
2023-01-28T17:11:25.572Z,96.03
2023-01-28T17:13:52.690Z,88.30
2023-01-28T17:16:20.299Z,84.65
2023-01-28T17:18:48.739Z,82.88
2023-01-28T17:21:15.405Z,77.18
2023-01-28T17:23:41.851Z,201.77
2023-01-28T17:26:09.252Z,236.55
2023-01-28T17:28:35.649Z,198.75
2023-01-28T17:31:02.457Z,186.35
2023-01-28T17:33:28.837Z,173.18
2023-01-28T17:35:55.689Z,160.45
2023-01-28T17:38:23.743Z,151.68
2023-01-28T17:40:50.223Z,140.05
2023-01-28T17:43:16.655Z,135.82
2023-01-28T17:45:43.219Z,127.85
2023-01-28T17:48:09.710Z,119.55
2023-01-28T17:50:36.136Z,115.65
2023-01-28T17:53:02.498Z,107.93
2023-01-28T17:55:29.150Z,136.50
2023-01-28T17:57:56.059Z,177.50
2023-01-28T18:00:22.932Z,200.10
2023-01-28T18:02:49.463Z,180.55
2023-01-28T18:05:16.141Z,165.73
2023-01-28T18:07:42.724Z,151.52
2023-01-28T18:10:09.156Z,145.00
2023-01-28T18:12:35.545Z,137.32
2023-01-28T18:15:02.246Z,129.30
2023-01-28T18:17:28.581Z,127.43
2023-01-28T18:19:55.146Z,184.15
2023-01-28T18:22:21.566Z,160.82
2023-01-28T18:24:48.461Z,225.07
2023-01-28T18:27:15.553Z,204.40
2023-01-28T18:29:42.994Z,209.45
2023-01-28T18:32:09.544Z,193.23
2023-01-28T18:34:36.789Z,268.90
2023-01-28T18:37:03.578Z,311.77
2023-01-28T18:39:30.609Z,269.67
2023-01-28T18:41:57.439Z,260.85
2023-01-28T18:44:24.358Z,244.95
2023-01-28T18:46:51.577Z,227.05
2023-01-28T18:49:18.020Z,214.40
2023-01-28T18:51:44.567Z,194.98
2023-01-28T18:54:13.674Z,186.90
2023-01-28T18:56:40.610Z,175.38
2023-01-28T18:59:07.641Z,181.98
2023-01-28T19:01:35.298Z,261.77
2023-01-28T19:04:02.087Z,298.65
2023-01-28T19:06:29.385Z,305.08
2023-01-28T19:08:55.983Z,298.92
2023-01-28T19:11:22.458Z,275.85
2023-01-28T19:13:49.010Z,262.83
2023-01-28T19:16:15.729Z,241.52
2023-01-28T19:18:42.242Z,233.35
2023-01-28T19:21:08.664Z,216.20
2023-01-28T19:23:49.316Z,208.73
2023-01-28T19:26:16.481Z,197.80
2023-01-28T19:28:42.873Z,185.20
2023-01-28T19:31:09.300Z,176.40
2023-01-28T19:33:35.920Z,170.73
2023-01-28T19:36:02.519Z,197.40
2023-01-28T19:38:29.309Z,192.52
2023-01-28T19:40:55.669Z,255.45
2023-01-28T19:43:23.056Z,273.25
2023-01-28T19:45:49.436Z,275.73
2023-01-28T19:48:15.872Z,252.75
2023-01-28T19:50:42.498Z,241.23
2023-01-28T19:53:09.031Z,227.85
2023-01-28T19:55:35.645Z,205.75
2023-01-28T19:58:02.239Z,195.88
2023-01-28T20:00:28.782Z,191.40
2023-01-28T20:02:55.728Z,177.60
2023-01-28T20:05:22.437Z,167.88
2023-01-28T20:07:48.944Z,155.00
2023-01-28T20:10:15.686Z,149.30
2023-01-28T20:12:42.520Z,174.13
2023-01-28T20:15:09.126Z,286.73
2023-01-28T20:17:35.793Z,313.73
2023-01-28T20:20:03.019Z,301.35
2023-01-28T20:22:29.609Z,281.35
2023-01-28T20:24:56.924Z,262.85
2023-01-28T20:27:23.295Z,252.88
2023-01-28T20:29:49.854Z,233.30
2023-01-28T20:32:20.338Z,266.08
2023-01-28T20:34:47.659Z,300.90
2023-01-28T20:37:14.262Z,314.02
2023-01-28T20:39:40.881Z,285.15
2023-01-28T20:42:07.538Z,261.45
2023-01-28T20:44:33.904Z,253.90
2023-01-28T20:47:01.247Z,240.15
2023-01-28T20:49:28.288Z,223.80
2023-01-28T20:51:54.891Z,210.02
2023-01-28T20:54:21.278Z,198.30
2023-01-28T20:56:47.627Z,182.00
2023-01-28T20:59:14.162Z,168.95
2023-01-28T21:01:41.041Z,167.30
2023-01-28T21:04:10.370Z,153.55
2023-01-28T21:06:37.330Z,148.75
2023-01-28T21:09:03.967Z,143.77
2023-01-28T21:11:30.308Z,265.63
2023-01-28T21:13:57.114Z,273.45
2023-01-28T21:16:24.127Z,232.77
2023-01-28T21:18:51.059Z,220.18
2023-01-28T21:21:17.726Z,164.27
2023-01-28T21:23:44.434Z,225.55
2023-01-28T21:26:11.356Z,256.67
2023-01-28T21:28:38.255Z,240.38
2023-01-28T21:31:04.797Z,229.48
2023-01-28T21:33:31.842Z,215.77
2023-01-28T21:35:59.003Z,206.15
2023-01-28T21:38:26.088Z,260.67
2023-01-28T21:40:52.663Z,299.92
2023-01-28T21:43:19.522Z,288.52
2023-01-28T21:45:45.923Z,265.23
2023-01-28T21:48:12.320Z,248.35
2023-01-28T21:50:38.792Z,235.95
2023-01-28T21:53:05.695Z,220.73
2023-01-28T21:55:32.179Z,198.50
2023-01-28T21:57:58.593Z,190.00
2023-01-28T22:00:24.956Z,306.02
2023-01-28T22:02:51.393Z,345.95
2023-01-28T22:05:17.751Z,308.25
2023-01-28T22:07:44.129Z,285.05
2023-01-28T22:10:10.719Z,274.13
2023-01-28T22:12:37.198Z,251.30
2023-01-28T22:15:04.342Z,243.15
2023-01-28T22:17:30.806Z,242.95
2023-01-28T22:19:57.956Z,334.67
2023-01-28T22:22:24.376Z,341.30
2023-01-28T22:24:51.699Z,325.27
2023-01-28T22:27:18.109Z,312.92
2023-01-28T22:29:44.589Z,308.75
2023-01-28T22:32:11.366Z,310.45
2023-01-28T22:34:37.840Z,298.42
2023-01-28T22:37:04.249Z,291.30
2023-01-28T22:39:30.757Z,286.98
2023-01-28T22:41:57.152Z,286.95
2023-01-28T22:44:23.785Z,276.27
2023-01-28T22:46:50.473Z,277.08
2023-01-28T22:49:17.325Z,265.73
2023-01-28T22:51:43.944Z,261.75
2023-01-28T22:54:10.326Z,253.30
2023-01-28T22:56:37.165Z,257.00
2023-01-28T22:59:04.434Z,246.65
2023-01-28T23:01:31.881Z,239.38
2023-01-28T23:03:59.023Z,237.15
2023-01-28T23:06:25.695Z,233.02
2023-01-28T23:08:52.716Z,226.20
2023-01-28T23:11:19.853Z,218.73
2023-01-28T23:13:46.573Z,213.18
2023-01-28T23:16:12.937Z,215.30
2023-01-28T23:18:40.508Z,205.95
2023-01-28T23:21:07.025Z,204.88
2023-01-28T23:23:33.455Z,196.82
2023-01-28T23:25:59.933Z,192.45
2023-01-28T23:28:26.253Z,185.05
2023-01-28T23:30:52.726Z,182.50
2023-01-28T23:33:19.974Z,176.90
2023-01-28T23:35:46.553Z,168.93
2023-01-28T23:38:13.135Z,167.10
2023-01-28T23:40:39.505Z,162.15
2023-01-28T23:43:05.968Z,152.35
2023-01-28T23:45:32.671Z,153.45
2023-01-28T23:47:59.102Z,148.82
2023-01-28T23:50:25.623Z,149.13
2023-01-28T23:52:52.058Z,143.45
2023-01-28T23:55:18.715Z,139.40
2023-01-28T23:57:47.062Z,137.68
